Berta — V2BQ6 — position and weather

sailwx.info

Track history (hours):
 
Tides and Currents Weather Stations Pressure Air Temp Water Temp Dewpoint Dewpoint Depression Visibility Wind Speed Wind Dir Waves Ship Positions

Berta

Last reported at 2014-Dec-22 15:34 UTC. Time now 2014-Dec-22 15:36 UTC.
Position N 54°29' E 007°22'.

Length 119 m; draft 8 m.

Type: Cargo ship. MMSI: 304586000.

Date/timePositionNaut miles runAvg speedWind from/ knotsBaromVisibWave heightAir tempDewpointWater temp
2014-Dec-22 15:34N 54°29' E 007°22'1110.9
2014-Dec-22 14:33N 54°40' E 007°17'1110.8
2014-Dec-22 13:32N 54°50' E 007°11'1110.8
2014-Dec-22 12:33N 55°01' E 007°06'1111.2
2014-Dec-22 11:33N 55°11' E 007°01'1111.3
2014-Dec-22 10:33N 55°22' E 006°55'1211.8
2014-Dec-22 09:33N 55°33' E 006°49'1211.7
2014-Dec-22 08:32N 55°45' E 006°43'16011.4
2014-Dec-21 18:32N 58°18' E 005°15'  
2014-Dec-19 09:29N 62°58' E 007°44'286 6.7
2014-Dec-17 14:31N 58°21' E 005°23'16713.5
2014-Dec-17 02:09N 55°40' E 006°46'711.9
2014-Dec-17 01:33N 55°33' E 006°49'1211.6
2014-Dec-17 00:33N 55°22' E 006°55'1212.1
2014-Dec-16 23:33N 55°10' E 006°60'1211.8
2014-Dec-16 22:34N 54°59' E 007°06'1211.9
2014-Dec-16 21:33N 54°48' E 007°13'1212.2
2014-Dec-16 20:33N 54°36' E 007°20'1212.1
2014-Dec-16 19:34N 54°25' E 007°27'1212.3
2014-Dec-16 18:34N 54°13' E 007°34'1211.7
2014-Dec-16 17:33N 54°07' E 007°51'1111.4
2014-Dec-16 16:33N 54°01' E 008°08'1110.8
2014-Dec-16 15:33N 53°59' E 008°26'1211.7
2014-Dec-16 14:33N 53°53' E 008°43'1413.7
2014-Dec-16 13:34N 53°53' E 009°06'1110.6
2014-Dec-16 12:34N 53°48' E 009°22'1616.0
2014-Dec-16 11:33N 53°35' E 009°37'1110.7
2014-Dec-16 10:33N 53°32' E 009°55'0 0.0
2014-Dec-16 09:33N 53°32' E 009°55'0 0.1
2014-Dec-16 08:33N 53°32' E 009°54'0 0.4
2014-Dec-16 07:33N 53°32' E 009°55'0 0.0
2014-Dec-16 06:33N 53°32' E 009°55'1 0.5
2014-Dec-16 05:33N 53°32' E 009°56'2 1.7
2014-Dec-16 04:20N 53°30' E 009°56'0 0.0
2014-Dec-16 03:32N 53°30' E 009°56'0 0.0
2014-Dec-16 02:33N 53°30' E 009°56'0 0.0
2014-Dec-16 01:10N 53°30' E 009°56'0 0.0
2014-Dec-16 00:29N 53°30' E 009°56'0 0.0
2014-Dec-15 23:34N 53°30' E 009°56'0 0.0
2014-Dec-15 22:33N 53°30' E 009°56'0 0.0
2014-Dec-15 21:33N 53°30' E 009°56'0 0.0
2014-Dec-15 20:33N 53°30' E 009°56'0 0.0
2014-Dec-15 19:33N 53°30' E 009°56'0 0.0
2014-Dec-15 18:33N 53°30' E 009°56'2 1.8
2014-Dec-15 17:33N 53°32' E 009°57'0 0.0
2014-Dec-15 16:33N 53°32' E 009°57'0 0.0
2014-Dec-15 15:33N 53°32' E 009°57'6 6.5
2014-Dec-15 14:33N 53°34' E 009°46'1110.8
2014-Dec-15 13:33N 53°39' E 009°31'1111.0
2014-Dec-15 12:33N 53°49' E 009°22'1010.4
2014-Dec-15 11:33N 53°52' E 009°05'1110.7
2014-Dec-15 10:33N 53°50' E 008°47'10 9.9
2014-Dec-15 09:33N 53°58' E 008°36'1312.5
2014-Dec-15 08:33N 53°59' E 008°15'1212.0
2014-Dec-15 07:33N 54°03' E 007°55'1212.2
2014-Dec-15 06:33N 54°09' E 007°37'1010.4
2014-Dec-15 05:33N 54°18' E 007°28'1010.3
2014-Dec-15 04:33N 54°27' E 007°23'10 9.8
2014-Dec-15 03:33N 54°37' E 007°18'12 9.6
2014-Dec-15 02:17N 54°49' E 007°12'7 9.7
2014-Dec-15 01:33N 54°55' E 007°09'10 9.5
2014-Dec-15 00:33N 55°05' E 007°05'10 9.8
2014-Dec-14 23:33N 55°14' E 007°01'7 7.4
2014-Dec-14 22:33N 55°22' E 006°59'9 9.2
2014-Dec-14 21:32N 55°31' E 006°56'9 8.9
2014-Dec-14 20:33N 55°39' E 006°54'9 9.2
2014-Dec-14 19:32N 55°49' E 006°50'140 9.9
2014-Dec-14 05:22N 58°07' E 006°06'911.6
2014-Dec-14 04:33N 58°16' E 006°02'1110.8
2014-Dec-14 03:34N 58°27' E 005°59'0 0.1
2014-Dec-14 02:34N 58°26' E 005°59'0 0.0
2014-Dec-14 01:34N 58°26' E 005°59'0 0.0
2014-Dec-14 00:34N 58°26' E 005°59'4 4.3
2014-Dec-13 23:34N 58°24' E 005°53'1312.7
2014-Dec-13 22:33N 58°32' E 005°35'1312.9
2014-Dec-13 21:33N 58°44' E 005°24'1312.5
2014-Dec-13 20:33N 58°56' E 005°19'1312.9
2014-Dec-13 19:34N 59°09' E 005°20'1211.1
2014-Dec-13 18:31N 59°20' E 005°18'0 0.0
2014-Dec-13 17:16N 59°20' E 005°18'0 0.0
2014-Dec-13 16:31N 59°20' E 005°18'0 0.0
2014-Dec-13 15:31N 59°20' E 005°18'0 0.0
2014-Dec-13 14:33N 59°20' E 005°18'5 5.3
2014-Dec-13 13:31N 59°15' E 005°21'1010.1
2014-Dec-13 12:33N 59°06' E 005°12'1212.2
2014-Dec-13 11:33N 59°17' E 004°59'  
Track history (hours):
 
Tides and Currents Weather Stations Pressure Air Temp Water Temp Dewpoint Dewpoint Depression Visibility Wind Speed Wind Dir Waves Ship Positions

Berta

Last reported at 2014-Dec-22 15:34 UTC. Time now 2014-Dec-22 15:36 UTC.
Position N 54°29' E 007°22'.

Length 119 m; draft 8 m.

Type: Cargo ship. MMSI: 304586000.

Date/timePositionNaut miles runAvg speedWind from/ knotsBaromVisibWave heightAir tempDewpointWater temp
2014-Dec-22 15:34N 54°29' E 007°22'1110.9
2014-Dec-22 14:33N 54°40' E 007°17'1110.8
2014-Dec-22 13:32N 54°50' E 007°11'1110.8
2014-Dec-22 12:33N 55°01' E 007°06'1111.2
2014-Dec-22 11:33N 55°11' E 007°01'1111.3
2014-Dec-22 10:33N 55°22' E 006°55'1211.8
2014-Dec-22 09:33N 55°33' E 006°49'1211.7
2014-Dec-22 08:32N 55°45' E 006°43'16011.4
2014-Dec-21 18:32N 58°18' E 005°15'  
2014-Dec-19 09:29N 62°58' E 007°44'286 6.7
2014-Dec-17 14:31N 58°21' E 005°23'16713.5
2014-Dec-17 02:09N 55°40' E 006°46'711.9
2014-Dec-17 01:33N 55°33' E 006°49'1211.6
2014-Dec-17 00:33N 55°22' E 006°55'1212.1
2014-Dec-16 23:33N 55°10' E 006°60'1211.8
2014-Dec-16 22:34N 54°59' E 007°06'1211.9
2014-Dec-16 21:33N 54°48' E 007°13'1212.2
2014-Dec-16 20:33N 54°36' E 007°20'1212.1
2014-Dec-16 19:34N 54°25' E 007°27'1212.3
2014-Dec-16 18:34N 54°13' E 007°34'1211.7
2014-Dec-16 17:33N 54°07' E 007°51'1111.4
2014-Dec-16 16:33N 54°01' E 008°08'1110.8
2014-Dec-16 15:33N 53°59' E 008°26'1211.7
2014-Dec-16 14:33N 53°53' E 008°43'1413.7
2014-Dec-16 13:34N 53°53' E 009°06'1110.6
2014-Dec-16 12:34N 53°48' E 009°22'1616.0
2014-Dec-16 11:33N 53°35' E 009°37'1110.7
2014-Dec-16 10:33N 53°32' E 009°55'0 0.0
2014-Dec-16 09:33N 53°32' E 009°55'0 0.1
2014-Dec-16 08:33N 53°32' E 009°54'0 0.4
2014-Dec-16 07:33N 53°32' E 009°55'0 0.0
2014-Dec-16 06:33N 53°32' E 009°55'1 0.5
2014-Dec-16 05:33N 53°32' E 009°56'2 1.7
2014-Dec-16 04:20N 53°30' E 009°56'0 0.0
2014-Dec-16 03:32N 53°30' E 009°56'0 0.0
2014-Dec-16 02:33N 53°30' E 009°56'0 0.0
2014-Dec-16 01:10N 53°30' E 009°56'0 0.0
2014-Dec-16 00:29N 53°30' E 009°56'0 0.0
2014-Dec-15 23:34N 53°30' E 009°56'0 0.0
2014-Dec-15 22:33N 53°30' E 009°56'0 0.0
2014-Dec-15 21:33N 53°30' E 009°56'0 0.0
2014-Dec-15 20:33N 53°30' E 009°56'0 0.0
2014-Dec-15 19:33N 53°30' E 009°56'0 0.0
2014-Dec-15 18:33N 53°30' E 009°56'2 1.8
2014-Dec-15 17:33N 53°32' E 009°57'0 0.0
2014-Dec-15 16:33N 53°32' E 009°57'0 0.0
2014-Dec-15 15:33N 53°32' E 009°57'6 6.5
2014-Dec-15 14:33N 53°34' E 009°46'1110.8
2014-Dec-15 13:33N 53°39' E 009°31'1111.0
2014-Dec-15 12:33N 53°49' E 009°22'1010.4
2014-Dec-15 11:33N 53°52' E 009°05'1110.7
2014-Dec-15 10:33N 53°50' E 008°47'10 9.9
2014-Dec-15 09:33N 53°58' E 008°36'1312.5
2014-Dec-15 08:33N 53°59' E 008°15'1212.0
2014-Dec-15 07:33N 54°03' E 007°55'1212.2
2014-Dec-15 06:33N 54°09' E 007°37'1010.4
2014-Dec-15 05:33N 54°18' E 007°28'1010.3
2014-Dec-15 04:33N 54°27' E 007°23'10 9.8
2014-Dec-15 03:33N 54°37' E 007°18'12 9.6
2014-Dec-15 02:17N 54°49' E 007°12'7 9.7
2014-Dec-15 01:33N 54°55' E 007°09'10 9.5
2014-Dec-15 00:33N 55°05' E 007°05'10 9.8
2014-Dec-14 23:33N 55°14' E 007°01'7 7.4
2014-Dec-14 22:33N 55°22' E 006°59'9 9.2
2014-Dec-14 21:32N 55°31' E 006°56'9 8.9
2014-Dec-14 20:33N 55°39' E 006°54'9 9.2
2014-Dec-14 19:32N 55°49' E 006°50'140 9.9
2014-Dec-14 05:22N 58°07' E 006°06'911.6
2014-Dec-14 04:33N 58°16' E 006°02'1110.8
2014-Dec-14 03:34N 58°27' E 005°59'0 0.1
2014-Dec-14 02:34N 58°26' E 005°59'0 0.0
2014-Dec-14 01:34N 58°26' E 005°59'0 0.0
2014-Dec-14 00:34N 58°26' E 005°59'4 4.3
2014-Dec-13 23:34N 58°24' E 005°53'1312.7
2014-Dec-13 22:33N 58°32' E 005°35'1312.9
2014-Dec-13 21:33N 58°44' E 005°24'1312.5
2014-Dec-13 20:33N 58°56' E 005°19'1312.9
2014-Dec-13 19:34N 59°09' E 005°20'1211.1
2014-Dec-13 18:31N 59°20' E 005°18'0 0.0
2014-Dec-13 17:16N 59°20' E 005°18'0 0.0
2014-Dec-13 16:31N 59°20' E 005°18'0 0.0
2014-Dec-13 15:31N 59°20' E 005°18'0 0.0
2014-Dec-13 14:33N 59°20' E 005°18'5 5.3
2014-Dec-13 13:31N 59°15' E 005°21'1010.1
2014-Dec-13 12:33N 59°06' E 005°12'1212.2
2014-Dec-13 11:33N 59°17' E 004°59'  

Dump ship's entire track history